createdAt,value
2023-04-13T00:00:48.411Z,10.40
2023-04-13T00:03:17.973Z,11.77
2023-04-13T00:05:46.543Z,11.88
2023-04-13T00:08:14.583Z,12.52
2023-04-13T00:10:41.866Z,13.63
2023-04-13T00:13:10.587Z,15.00
2023-04-13T00:15:41.204Z,14.65
2023-04-13T00:18:08.990Z,13.30
2023-04-13T00:20:36.035Z,15.50
2023-04-13T00:23:03.264Z,16.00
2023-04-13T00:25:30.654Z,16.08
2023-04-13T00:27:57.590Z,16.85
2023-04-13T00:30:24.765Z,17.13
2023-04-13T00:32:52.064Z,16.67
2023-04-13T00:35:24.976Z,16.63
2023-04-13T00:37:53.016Z,14.98
2023-04-13T00:40:20.062Z,14.20
2023-04-13T00:42:48.526Z,14.23
2023-04-13T00:45:16.527Z,13.23
2023-04-13T00:47:46.804Z,14.50
2023-04-13T00:50:18.484Z,15.60
2023-04-13T00:52:46.162Z,15.60
2023-04-13T00:55:14.597Z,15.32
2023-04-13T00:57:42.011Z,15.15
2023-04-13T01:00:09.935Z,15.27
2023-04-13T01:02:42.203Z,16.25
2023-04-13T01:05:12.775Z,16.60
2023-04-13T01:07:47.356Z,16.73
2023-04-13T01:10:32.200Z,16.92
2023-04-13T01:13:10.313Z,17.05
2023-04-13T01:15:39.924Z,16.17
2023-04-13T01:18:11.163Z,16.95
2023-04-13T01:20:40.554Z,15.23
2023-04-13T01:23:24.753Z,15.75
2023-04-13T01:26:02.367Z,17.02
2023-04-13T01:28:30.381Z,18.33
2023-04-13T01:31:00.528Z,17.50
2023-04-13T01:33:30.684Z,19.42
2023-04-13T01:36:01.089Z,18.40
2023-04-13T01:38:27.940Z,18.63
2023-04-13T01:40:54.739Z,20.67
2023-04-13T01:43:21.794Z,17.10
2023-04-13T01:46:04.903Z,17.90
2023-04-13T01:48:41.018Z,17.17
2023-04-13T01:51:13.595Z,16.35
2023-04-13T01:53:53.645Z,15.20
2023-04-13T01:56:23.225Z,16.60
2023-04-13T01:58:58.746Z,15.23
2023-04-13T02:01:26.839Z,17.17
2023-04-13T02:03:54.093Z,16.83
2023-04-13T02:06:21.132Z,16.60
2023-04-13T02:08:50.088Z,17.70
2023-04-13T02:11:18.020Z,15.65
2023-04-13T02:13:44.828Z,16.20
2023-04-13T02:16:11.692Z,16.27
2023-04-13T02:18:38.810Z,17.00
2023-04-13T02:21:12.257Z,16.25
2023-04-13T02:23:41.341Z,16.42
2023-04-13T02:26:16.478Z,16.88
2023-04-13T02:28:43.820Z,18.20
2023-04-13T02:31:10.772Z,17.80
2023-04-13T02:33:37.805Z,15.57
2023-04-13T02:36:05.365Z,16.42
2023-04-13T02:38:32.344Z,17.33
2023-04-13T02:41:00.670Z,15.50
2023-04-13T02:43:27.676Z,16.88
2023-04-13T02:45:55.420Z,17.80
2023-04-13T02:48:22.432Z,15.80
2023-04-13T02:50:49.587Z,18.02
2023-04-13T02:53:17.699Z,17.02
2023-04-13T02:55:44.585Z,17.77
2023-04-13T02:58:12.458Z,17.17
2023-04-13T03:00:39.872Z,16.88
2023-04-13T03:03:07.010Z,17.42
2023-04-13T03:05:34.055Z,15.85
2023-04-13T03:08:00.876Z,16.52
2023-04-13T03:10:27.782Z,15.80
2023-04-13T03:12:55.022Z,16.25
2023-04-13T03:15:22.076Z,18.40
2023-04-13T03:17:49.038Z,16.00
2023-04-13T03:20:17.031Z,17.23
2023-04-13T03:22:45.431Z,16.98
2023-04-13T03:25:12.726Z,16.15
2023-04-13T03:27:39.668Z,16.73
2023-04-13T03:30:07.664Z,18.50
2023-04-13T03:32:34.718Z,19.63
2023-04-13T03:35:01.624Z,19.48
2023-04-13T03:37:30.411Z,20.77
2023-04-13T03:39:58.956Z,19.70
2023-04-13T03:42:25.760Z,20.17
2023-04-13T03:44:52.994Z,18.55
2023-04-13T03:47:19.976Z,20.33
2023-04-13T03:49:47.314Z,18.02
2023-04-13T03:52:14.227Z,19.75
2023-04-13T03:54:41.146Z,19.33
2023-04-13T03:57:07.963Z,19.35
2023-04-13T03:59:35.122Z,19.63
2023-04-13T04:02:04.851Z,18.00
2023-04-13T04:04:31.744Z,17.40
2023-04-13T04:06:59.417Z,20.42
2023-04-13T04:09:26.359Z,19.63
2023-04-13T04:11:53.205Z,19.20
2023-04-13T04:14:20.493Z,21.40
2023-04-13T04:16:47.509Z,19.38
2023-04-13T04:19:14.414Z,21.58
2023-04-13T04:21:46.818Z,20.48
2023-04-13T04:24:23.503Z,18.67
2023-04-13T04:26:50.759Z,19.85
2023-04-13T04:29:21.992Z,19.30
2023-04-13T04:31:53.418Z,19.02
2023-04-13T04:34:20.814Z,18.58
2023-04-13T04:36:51.944Z,17.55
2023-04-13T04:39:22.814Z,18.92
2023-04-13T04:41:54.517Z,19.85
2023-04-13T04:44:25.409Z,19.35
2023-04-13T04:46:52.915Z,17.45
2023-04-13T04:49:21.874Z,19.60
2023-04-13T04:51:49.517Z,18.00
2023-04-13T04:54:17.187Z,17.75
2023-04-13T04:56:45.538Z,17.55
2023-04-13T04:59:12.420Z,16.77
2023-04-13T05:01:39.708Z,19.15
2023-04-13T05:04:07.264Z,19.13
2023-04-13T05:06:34.366Z,17.10
2023-04-13T05:09:02.159Z,16.48
2023-04-13T05:11:30.243Z,15.80
2023-04-13T05:13:57.086Z,15.60
2023-04-13T05:16:25.066Z,17.92
2023-04-13T05:18:52.205Z,13.95
2023-04-13T05:21:19.120Z,16.15
2023-04-13T05:23:46.508Z,15.35
2023-04-13T05:26:14.009Z,16.73
2023-04-13T05:28:40.980Z,15.90
2023-04-13T05:31:11.262Z,16.55
2023-04-13T05:33:38.281Z,13.90
2023-04-13T05:36:05.824Z,16.05
2023-04-13T05:38:33.121Z,15.85
2023-04-13T05:41:00.073Z,16.02
2023-04-13T05:43:27.044Z,14.85
2023-04-13T05:45:53.899Z,16.48
2023-04-13T05:48:20.840Z,13.77
2023-04-13T05:50:47.678Z,16.77
2023-04-13T05:53:14.533Z,17.48
2023-04-13T05:55:44.172Z,17.13
2023-04-13T05:58:12.459Z,18.30
2023-04-13T06:00:39.939Z,17.75
2023-04-13T06:03:07.581Z,17.70
2023-04-13T06:05:36.681Z,17.42
2023-04-13T06:08:03.768Z,19.03
2023-04-13T06:10:30.761Z,17.00
2023-04-13T06:12:57.576Z,16.70
2023-04-13T06:15:24.449Z,17.60
2023-04-13T06:17:53.534Z,18.10
2023-04-13T06:20:21.710Z,17.37
2023-04-13T06:22:48.857Z,17.85
2023-04-13T06:25:16.565Z,18.17
2023-04-13T06:27:44.328Z,15.97
2023-04-13T06:30:12.296Z,16.33
2023-04-13T06:32:39.411Z,17.33
2023-04-13T06:35:06.873Z,17.42
2023-04-13T06:37:35.858Z,17.35
2023-04-13T06:40:15.880Z,16.33
2023-04-13T06:42:43.678Z,15.45
2023-04-13T06:45:11.789Z,15.02
2023-04-13T06:47:43.164Z,14.17
2023-04-13T06:50:13.947Z,13.50
2023-04-13T06:52:43.542Z,14.05
2023-04-13T06:55:10.305Z,12.88
2023-04-13T06:57:37.129Z,11.95
2023-04-13T07:00:12.588Z,10.82
2023-04-13T07:02:49.246Z,9.50
2023-04-13T07:05:16.592Z,11.73
2023-04-13T07:07:43.419Z,9.20
2023-04-13T07:10:10.713Z,10.80
2023-04-13T07:12:37.524Z,9.57
2023-04-13T07:15:04.692Z,8.10
2023-04-13T07:17:31.510Z,9.77
2023-04-13T07:19:58.301Z,9.63
2023-04-13T07:22:25.084Z,8.33
2023-04-13T07:24:51.885Z,8.30
2023-04-13T07:27:18.693Z,8.77
2023-04-13T07:29:45.633Z,10.03
2023-04-13T07:32:12.469Z,8.40
2023-04-13T07:34:39.338Z,6.27
2023-04-13T07:37:06.264Z,6.60
2023-04-13T07:39:33.374Z,5.67
2023-04-13T07:42:00.801Z,7.50
2023-04-13T07:44:27.803Z,7.70
2023-04-13T07:46:57.810Z,7.40
2023-04-13T07:49:24.607Z,7.67
2023-04-13T07:51:54.233Z,8.67
2023-04-13T07:54:22.212Z,8.10
2023-04-13T07:56:49.092Z,8.27
2023-04-13T07:59:15.964Z,8.70
2023-04-13T08:01:42.942Z,7.20
2023-04-13T08:04:09.992Z,8.33
2023-04-13T08:06:36.898Z,7.63
2023-04-13T08:09:03.909Z,6.63
2023-04-13T08:11:31.115Z,7.30
2023-04-13T08:13:57.896Z,6.97
2023-04-13T08:16:24.798Z,7.63
2023-04-13T08:18:51.931Z,7.53
2023-04-13T08:21:19.044Z,7.73
2023-04-13T08:23:46.340Z,7.47
2023-04-13T08:26:18.745Z,8.00
2023-04-13T08:28:50.975Z,8.00
2023-04-13T08:31:17.902Z,8.10
2023-04-13T08:33:44.732Z,7.90
2023-04-13T08:36:11.636Z,7.40
2023-04-13T08:38:38.372Z,8.50
2023-04-13T08:41:06.796Z,7.53
2023-04-13T08:43:35.842Z,8.43
2023-04-13T08:46:06.698Z,8.23
2023-04-13T08:49:04.587Z,7.57
2023-04-13T08:51:34.042Z,7.03
2023-04-13T08:54:00.818Z,7.43
2023-04-13T08:56:42.191Z,8.90
2023-04-13T08:59:12.930Z,7.77
2023-04-13T09:01:41.439Z,8.87
2023-04-13T09:04:13.322Z,9.30
2023-04-13T09:06:42.801Z,8.47
2023-04-13T09:09:11.258Z,9.30
2023-04-13T09:11:39.212Z,8.30
2023-04-13T09:14:06.088Z,9.00
2023-04-13T09:16:42.947Z,8.30
2023-04-13T09:19:10.366Z,8.00
2023-04-13T09:21:45.243Z,7.90
2023-04-13T09:24:12.844Z,8.23
2023-04-13T09:26:44.450Z,8.37
2023-04-13T09:29:14.862Z,7.87
2023-04-13T09:31:45.176Z,7.60
2023-04-13T09:34:13.595Z,6.63
2023-04-13T09:36:53.468Z,8.17
2023-04-13T09:39:28.741Z,8.10
2023-04-13T09:41:56.413Z,7.40
2023-04-13T09:44:34.960Z,7.30
2023-04-13T09:47:04.276Z,8.27
2023-04-13T09:49:38.482Z,9.53
2023-04-13T09:52:08.372Z,8.23
2023-04-13T09:54:35.912Z,8.20
2023-04-13T09:57:05.051Z,6.90
2023-04-13T09:59:33.077Z,6.60
2023-04-13T10:02:02.122Z,6.70
2023-04-13T10:04:30.773Z,6.73
2023-04-13T10:06:57.793Z,5.63
2023-04-13T10:09:26.581Z,6.37
2023-04-13T10:11:56.001Z,6.43
2023-04-13T10:14:31.470Z,7.23
2023-04-13T10:17:05.201Z,6.70
2023-04-13T10:19:43.326Z,7.30
2023-04-13T10:22:11.960Z,6.17
2023-04-13T10:24:42.307Z,5.60
2023-04-13T10:27:18.800Z,6.53
2023-04-13T10:29:46.400Z,6.00
2023-04-13T10:32:24.646Z,6.37
2023-04-13T10:34:52.922Z,6.30
2023-04-13T10:37:25.232Z,6.33
2023-04-13T10:40:06.748Z,6.20
2023-04-13T10:45:20.757Z,6.63
2023-04-13T10:47:47.911Z,6.60
2023-04-13T10:50:22.662Z,6.97
2023-04-13T10:53:02.050Z,6.20
2023-04-13T10:55:29.935Z,7.33
2023-04-13T10:58:01.540Z,6.43
2023-04-13T11:00:45.421Z,5.60
2023-04-13T11:03:19.611Z,5.47
2023-04-13T11:05:48.509Z,4.83
2023-04-13T11:08:20.538Z,5.23
2023-04-13T11:11:06.112Z,6.83
2023-04-13T11:13:32.900Z,5.67
2023-04-13T11:16:04.126Z,5.10
2023-04-13T11:18:31.832Z,6.00
2023-04-13T11:20:58.633Z,5.73
2023-04-13T11:23:25.539Z,5.10
2023-04-13T11:25:55.086Z,5.90
2023-04-13T11:28:23.439Z,5.40
2023-04-13T11:30:56.798Z,5.10
2023-04-13T11:33:24.836Z,5.03
2023-04-13T11:35:51.725Z,4.90
2023-04-13T11:38:18.765Z,5.23
2023-04-13T11:40:47.722Z,6.17
2023-04-13T11:43:18.840Z,5.47
2023-04-13T11:45:47.318Z,5.03
2023-04-13T11:48:14.936Z,5.10
2023-04-13T11:50:42.662Z,5.40
2023-04-13T11:53:10.414Z,5.40
2023-04-13T11:55:52.050Z,4.60
2023-04-13T11:58:21.521Z,4.80
2023-04-13T12:00:49.189Z,4.50
2023-04-13T12:05:49.894Z,4.90
2023-04-13T12:08:24.549Z,4.30
2023-04-13T12:13:47.153Z,4.40
2023-04-13T12:16:55.440Z,3.60
2023-04-13T12:19:16.174Z,4.27
2023-04-13T12:21:57.288Z,3.40
2023-04-13T12:24:39.188Z,4.20
2023-04-13T12:29:40.704Z,2.83
2023-04-13T12:32:14.268Z,3.47
2023-04-13T12:34:43.019Z,3.10
2023-04-13T12:37:11.512Z,3.60
2023-04-13T12:39:38.625Z,2.80
2023-04-13T12:42:05.765Z,3.23
2023-04-13T12:44:34.101Z,4.07
2023-04-13T12:47:01.993Z,3.83
2023-04-13T12:49:29.101Z,3.57
2023-04-13T12:51:55.907Z,3.70
2023-04-13T12:54:22.744Z,3.53
2023-04-13T12:56:49.519Z,2.50
2023-04-13T12:59:16.834Z,2.80
2023-04-13T13:01:43.689Z,2.60
2023-04-13T13:04:10.874Z,3.00
2023-04-13T13:06:38.050Z,2.83
2023-04-13T13:09:05.919Z,2.77
2023-04-13T13:11:32.824Z,2.67
2023-04-13T13:13:59.571Z,3.00
2023-04-13T13:16:26.772Z,3.13
2023-04-13T13:18:53.587Z,2.93
2023-04-13T13:21:21.207Z,2.90
2023-04-13T13:23:48.019Z,2.67
2023-04-13T13:28:45.107Z,2.77
2023-04-13T13:31:12.800Z,2.50
2023-04-13T13:33:39.627Z,2.63
2023-04-13T13:36:07.611Z,2.50
2023-04-13T13:38:36.412Z,3.10
2023-04-13T13:41:03.647Z,2.27
2023-04-13T13:43:30.884Z,2.60
2023-04-13T13:45:57.958Z,2.63
2023-04-13T13:48:25.140Z,2.20
2023-04-13T13:50:51.875Z,2.30
2023-04-13T13:53:18.613Z,2.37
2023-04-13T13:55:45.417Z,2.47
2023-04-13T13:58:12.303Z,2.47
2023-04-13T14:00:39.766Z,2.33
2023-04-13T14:03:06.774Z,2.60
2023-04-13T14:05:33.858Z,2.50
2023-04-13T14:08:00.887Z,2.70
2023-04-13T14:10:27.754Z,2.40
2023-04-13T14:12:55.641Z,2.50
2023-04-13T14:15:22.585Z,2.40
2023-04-13T14:18:02.428Z,2.03
2023-04-13T14:20:38.623Z,2.13
2023-04-13T14:23:06.107Z,1.70
2023-04-13T14:25:32.873Z,2.53
2023-04-13T14:27:59.594Z,2.00
2023-04-13T14:30:27.924Z,1.70
2023-04-13T14:32:55.211Z,2.10
2023-04-13T14:35:22.307Z,2.00
2023-04-13T14:37:49.336Z,1.93
2023-04-13T14:40:17.092Z,2.10
2023-04-13T14:42:44.044Z,2.53
2023-04-13T14:45:12.386Z,2.80
2023-04-13T14:47:40.205Z,2.23
2023-04-13T14:50:08.447Z,1.90
2023-04-13T14:52:35.608Z,1.60
2023-04-13T14:55:02.579Z,2.20
2023-04-13T14:57:29.402Z,2.33
2023-04-13T14:59:56.609Z,2.00
2023-04-13T15:02:24.216Z,1.90
2023-04-13T15:04:51.539Z,2.50
2023-04-13T15:07:18.925Z,2.30
2023-04-13T15:09:45.808Z,1.87
2023-04-13T15:12:13.843Z,1.67
2023-04-13T15:14:41.138Z,1.80
2023-04-13T15:17:08.700Z,2.33
2023-04-13T15:19:36.279Z,1.90
2023-04-13T15:22:03.117Z,1.90
2023-04-13T15:24:29.955Z,1.87
2023-04-13T15:26:56.820Z,2.00
2023-04-13T15:29:25.727Z,2.10
2023-04-13T15:31:54.038Z,2.00
2023-04-13T15:34:21.019Z,2.47
2023-04-13T15:36:48.090Z,2.50
2023-04-13T15:39:14.912Z,2.37
2023-04-13T15:41:41.708Z,1.97
2023-04-13T15:44:08.482Z,2.03
2023-04-13T15:46:35.410Z,2.47
2023-04-13T15:49:02.546Z,2.00
2023-04-13T15:51:29.610Z,2.50
2023-04-13T15:53:56.370Z,2.40
2023-04-13T15:56:23.329Z,2.33
2023-04-13T15:58:50.487Z,1.67
2023-04-13T16:01:17.663Z,1.90
2023-04-13T16:03:45.119Z,2.67
2023-04-13T16:06:12.208Z,1.70
2023-04-13T16:08:39.251Z,2.53
2023-04-13T16:11:06.553Z,2.47
2023-04-13T16:13:48.662Z,2.27
2023-04-13T16:16:16.029Z,2.47
2023-04-13T16:18:43.078Z,2.60
2023-04-13T16:21:10.994Z,2.33
2023-04-13T16:23:38.353Z,2.73
2023-04-13T16:26:05.242Z,2.50
2023-04-13T16:28:32.163Z,3.10
2023-04-13T16:30:59.226Z,2.33
2023-04-13T16:33:26.208Z,3.13
2023-04-13T16:35:53.126Z,2.90
2023-04-13T16:38:19.994Z,3.13
2023-04-13T16:40:47.035Z,2.20
2023-04-13T16:43:13.867Z,2.57
2023-04-13T16:45:40.642Z,2.43
2023-04-13T16:48:07.844Z,2.73
2023-04-13T16:50:34.784Z,2.90
2023-04-13T16:53:01.575Z,3.37
2023-04-13T16:55:28.851Z,2.43
2023-04-13T16:57:56.101Z,2.67
2023-04-13T17:00:23.626Z,3.23
2023-04-13T17:02:50.707Z,2.80
2023-04-13T17:05:17.842Z,2.97
2023-04-13T17:07:47.610Z,2.57
2023-04-13T17:10:14.794Z,3.20
2023-04-13T17:12:41.739Z,2.73
2023-04-13T17:15:09.993Z,3.30
2023-04-13T17:17:38.077Z,2.60
2023-04-13T17:20:06.074Z,2.90
2023-04-13T17:22:32.933Z,3.10
2023-04-13T17:24:59.822Z,3.07
2023-04-13T17:27:26.787Z,3.23
2023-04-13T17:29:53.546Z,2.80
2023-04-13T17:32:21.838Z,3.30
2023-04-13T17:34:49.614Z,4.33
2023-04-13T17:37:17.844Z,3.73
2023-04-13T17:39:49.593Z,4.00
2023-04-13T17:42:17.105Z,4.40
2023-04-13T17:44:44.394Z,3.77
2023-04-13T17:47:11.571Z,4.17
2023-04-13T17:49:38.587Z,4.00
2023-04-13T17:52:24.660Z,5.03
2023-04-13T17:54:51.515Z,4.97
2023-04-13T17:57:18.557Z,4.40
2023-04-13T17:59:46.706Z,4.43
2023-04-13T18:02:13.528Z,5.23
2023-04-13T18:04:40.465Z,5.00
2023-04-13T18:07:07.475Z,5.30
2023-04-13T18:09:34.223Z,5.90
2023-04-13T18:12:01.035Z,6.27
2023-04-13T18:14:27.834Z,6.33
2023-04-13T18:16:54.683Z,5.67
2023-04-13T18:19:21.486Z,6.63
2023-04-13T18:21:48.499Z,5.80
2023-04-13T18:24:15.306Z,5.23
2023-04-13T18:26:42.125Z,6.40
2023-04-13T18:29:09.639Z,7.10
2023-04-13T18:31:36.437Z,6.10
2023-04-13T18:34:03.594Z,7.03
2023-04-13T18:36:31.029Z,8.33
2023-04-13T18:38:57.803Z,7.87
2023-04-13T18:41:24.590Z,7.27
2023-04-13T18:43:51.484Z,7.80
2023-04-13T18:46:18.317Z,7.20
2023-04-13T18:48:45.244Z,8.90
2023-04-13T18:51:12.441Z,8.50
2023-04-13T18:53:39.268Z,7.67
2023-04-13T18:56:06.162Z,9.63
2023-04-13T18:58:32.968Z,9.60
2023-04-13T19:00:59.697Z,9.43
2023-04-13T19:03:26.541Z,9.70
2023-04-13T19:05:53.506Z,10.70
2023-04-13T19:08:20.310Z,8.87
2023-04-13T19:10:47.129Z,9.80
2023-04-13T19:13:16.282Z,9.50
2023-04-13T19:15:43.051Z,8.57
2023-04-13T19:18:11.432Z,8.87
2023-04-13T19:20:38.311Z,10.70
2023-04-13T19:23:05.509Z,10.57
2023-04-13T19:25:32.315Z,9.80
2023-04-13T19:27:59.247Z,10.47
2023-04-13T19:30:26.316Z,10.40
2023-04-13T19:32:54.396Z,11.00
2023-04-13T19:35:24.333Z,10.93
2023-04-13T19:37:51.101Z,10.60
2023-04-13T19:40:18.331Z,11.93
2023-04-13T19:42:46.036Z,11.30
2023-04-13T19:45:15.471Z,10.90
2023-04-13T19:47:42.584Z,11.63
2023-04-13T19:50:11.388Z,12.20
2023-04-13T19:52:39.497Z,12.93
2023-04-13T19:55:07.702Z,12.50
2023-04-13T19:57:36.727Z,12.87
2023-04-13T20:00:07.458Z,12.67
2023-04-13T20:02:34.327Z,12.07
2023-04-13T20:05:01.310Z,12.87
2023-04-13T20:07:28.038Z,11.80
2023-04-13T20:09:54.752Z,12.30
2023-04-13T20:12:21.862Z,11.67
2023-04-13T20:14:49.468Z,11.97
2023-04-13T20:17:16.316Z,12.33
2023-04-13T20:19:43.098Z,12.17
2023-04-13T20:22:11.015Z,13.00
2023-04-13T20:24:37.788Z,12.80
2023-04-13T20:27:05.194Z,10.83
2023-04-13T20:29:31.945Z,11.60
2023-04-13T20:31:58.810Z,11.93
2023-04-13T20:34:27.607Z,11.03
2023-04-13T20:36:56.412Z,11.60
2023-04-13T20:39:25.706Z,12.40
2023-04-13T20:41:55.865Z,13.33
2023-04-13T20:44:27.409Z,11.90
2023-04-13T20:46:54.750Z,10.00
2023-04-13T20:49:23.450Z,11.73
2023-04-13T20:51:55.960Z,12.00
2023-04-13T20:54:23.484Z,10.57
2023-04-13T20:56:50.357Z,10.97
2023-04-13T20:59:18.102Z,10.43
2023-04-13T21:01:45.678Z,10.10
2023-04-13T21:04:12.711Z,10.93
2023-04-13T21:06:40.613Z,10.10
2023-04-13T21:09:08.818Z,9.80
2023-04-13T21:11:35.956Z,10.23
2023-04-13T21:14:03.809Z,9.20
2023-04-13T21:16:31.102Z,10.33
2023-04-13T21:18:57.979Z,10.70
2023-04-13T21:21:25.322Z,11.63
2023-04-13T21:23:52.885Z,8.33
2023-04-13T21:26:20.260Z,9.53
2023-04-13T21:28:47.079Z,9.77
2023-04-13T21:31:14.102Z,10.53
2023-04-13T21:33:41.152Z,8.60
2023-04-13T21:38:41.709Z,10.17
2023-04-13T21:41:15.966Z,8.73
2023-04-13T21:43:42.896Z,9.27
2023-04-13T21:46:13.770Z,9.23
2023-04-13T21:48:40.880Z,9.23
2023-04-13T21:51:09.405Z,9.43
2023-04-13T21:53:36.867Z,8.70
2023-04-13T21:56:04.446Z,9.47
2023-04-13T21:58:39.104Z,10.07
2023-04-13T22:01:07.283Z,8.57
2023-04-13T22:03:38.546Z,8.60
2023-04-13T22:06:08.394Z,8.20
2023-04-13T22:08:35.492Z,8.17
2023-04-13T22:11:02.615Z,7.63
2023-04-13T22:13:29.464Z,7.77
2023-04-13T22:15:56.366Z,8.47
2023-04-13T22:18:23.984Z,6.83
2023-04-13T22:20:50.887Z,7.63
2023-04-13T22:23:17.841Z,8.63
2023-04-13T22:25:58.800Z,6.57
2023-04-13T22:28:28.377Z,6.83
2023-04-13T22:30:55.351Z,7.87
2023-04-13T22:33:22.235Z,7.40
2023-04-13T22:35:51.971Z,6.77
2023-04-13T22:38:19.242Z,7.40
2023-04-13T22:40:46.189Z,7.57
2023-04-13T22:43:13.016Z,7.53
2023-04-13T22:45:39.818Z,7.10
2023-04-13T22:48:06.886Z,7.63
2023-04-13T22:50:36.020Z,7.80
2023-04-13T22:53:02.762Z,8.07
2023-04-13T22:55:29.701Z,7.30
2023-04-13T22:57:57.125Z,7.20
2023-04-13T23:00:24.094Z,7.20
2023-04-13T23:02:52.830Z,7.20
2023-04-13T23:05:19.872Z,6.60
2023-04-13T23:07:46.604Z,7.03
2023-04-13T23:10:15.271Z,7.63
2023-04-13T23:12:43.363Z,6.37
2023-04-13T23:15:11.200Z,7.47
2023-04-13T23:17:38.161Z,6.23
2023-04-13T23:20:10.580Z,7.20
2023-04-13T23:22:37.685Z,6.80
2023-04-13T23:25:05.211Z,7.20
2023-04-13T23:27:32.041Z,6.83
2023-04-13T23:29:58.876Z,7.40
2023-04-13T23:32:25.846Z,6.77
2023-04-13T23:34:52.902Z,6.47
2023-04-13T23:37:20.542Z,8.00
2023-04-13T23:39:47.370Z,7.30
2023-04-13T23:42:14.211Z,6.97
2023-04-13T23:44:41.054Z,7.50
2023-04-13T23:47:07.870Z,7.73
2023-04-13T23:49:34.714Z,6.60
2023-04-13T23:52:01.666Z,6.37
2023-04-13T23:54:28.443Z,6.10
2023-04-13T23:56:55.777Z,6.37
2023-04-13T23:59:22.973Z,7.07
